Time,TemperatureF,DewpointF,PressureIn,WindDirection,WindDirectionDegrees,WindSpeedMPH,WindSpeedGustMPH,Humidity,HourlyPrecipIn,Conditions,Clouds,dailyrainin,SoftwareType,DateUTC
2013-05-27 00:02:00,60.0,36.0,30.23,East,90,3.0,7.0,40,0.00,,,0.00,,2013-05-27 04:02:00,
2013-05-27 00:12:00,60.0,36.0,30.23,East,90,3.0,5.0,41,0.00,,,0.00,,2013-05-27 04:12:00,
2013-05-27 00:23:00,60.0,36.0,30.23,East,90,3.0,5.0,41,0.00,,,0.00,,2013-05-27 04:23:00,
2013-05-27 00:33:00,60.0,36.0,30.23,East,90,5.0,10.0,41,0.00,,,0.00,,2013-05-27 04:33:00,
2013-05-27 00:43:00,59.0,35.0,30.24,ESE,112,4.0,9.0,40,0.00,,,0.00,,2013-05-27 04:43:00,
2013-05-27 00:52:00,59.0,35.0,30.24,ESE,112,4.0,9.0,40,0.00,,,0.00,,2013-05-27 04:52:00,
2013-05-27 01:02:00,59.0,35.0,30.23,ENE,67,3.0,4.0,41,0.00,,,0.00,,2013-05-27 05:02:00,
2013-05-27 01:12:00,59.0,35.0,30.23,ENE,67,3.0,4.0,41,0.00,,,0.00,,2013-05-27 05:12:00,
2013-05-27 01:22:00,59.0,35.0,30.22,ENE,67,3.0,8.0,41,0.00,,,0.00,,2013-05-27 05:22:00,
2013-05-27 01:32:00,59.0,36.0,30.23,East,90,2.0,4.0,42,0.00,,,0.00,,2013-05-27 05:32:00,
2013-05-27 01:42:00,59.0,36.0,30.23,East,90,2.0,4.0,42,0.00,,,0.00,,2013-05-27 05:42:00,
2013-05-27 01:52:00,59.0,36.0,30.22,East,90,2.0,4.0,42,0.00,,,0.00,,2013-05-27 05:52:00,
2013-05-27 02:02:00,59.0,35.0,30.24,SE,135,3.0,5.0,41,0.00,,,0.00,,2013-05-27 06:02:00,
2013-05-27 02:11:00,59.0,35.0,30.24,SE,135,3.0,5.0,41,0.00,,,0.00,,2013-05-27 06:11:00,
2013-05-27 02:22:00,59.0,36.0,30.23,East,90,2.0,6.0,42,0.00,,,0.00,,2013-05-27 06:22:00,
2013-05-27 02:32:00,58.0,35.0,30.22,East,90,2.0,6.0,42,0.00,,,0.00,,2013-05-27 06:32:00,
2013-05-27 02:42:00,58.0,34.0,30.22,ESE,112,1.0,7.0,41,0.00,,,0.00,,2013-05-27 06:42:00,
2013-05-27 02:52:00,58.0,34.0,30.22,ESE,112,1.0,7.0,41,0.00,,,0.00,,2013-05-27 06:52:00,
2013-05-27 03:02:00,58.0,34.0,30.21,ENE,67,3.0,11.0,41,0.00,,,0.00,,2013-05-27 07:02:00,
2013-05-27 03:11:00,58.0,34.0,30.22,ENE,67,2.0,3.0,41,0.00,,,0.00,,2013-05-27 07:11:00,
2013-05-27 03:21:00,58.0,34.0,30.22,ENE,67,2.0,3.0,41,0.00,,,0.00,,2013-05-27 07:21:00,
2013-05-27 03:32:00,58.0,35.0,30.21,ENE,67,2.0,7.0,42,0.00,,,0.00,,2013-05-27 07:32:00,
2013-05-27 03:42:00,58.0,35.0,30.21,ENE,67,2.0,7.0,42,0.00,,,0.00,,2013-05-27 07:42:00,
2013-05-27 03:52:00,58.0,35.0,30.22,East,90,3.0,8.0,42,0.00,,,0.00,,2013-05-27 07:52:00,
2013-05-27 04:02:00,58.0,35.0,30.21,ENE,67,4.0,8.0,42,0.00,,,0.00,,2013-05-27 08:02:00,
2013-05-27 04:11:00,58.0,36.0,30.22,East,90,1.0,4.0,43,0.00,,,0.00,,2013-05-27 08:11:00,
2013-05-27 04:22:00,58.0,36.0,30.22,East,90,1.0,4.0,43,0.00,,,0.00,,2013-05-27 08:22:00,
2013-05-27 04:33:00,58.0,36.0,30.20,East,90,2.0,4.0,43,0.00,,,0.00,,2013-05-27 08:33:00,
2013-05-27 04:42:00,58.0,36.0,30.22,East,90,1.0,4.0,44,0.00,,,0.00,,2013-05-27 08:42:00,
2013-05-27 04:52:00,58.0,36.0,30.22,East,90,1.0,4.0,44,0.00,,,0.00,,2013-05-27 08:52:00,
2013-05-27 05:02:00,57.0,35.0,30.21,SE,135,2.0,5.0,44,0.00,,,0.00,,2013-05-27 09:02:00,
2013-05-27 05:11:00,57.0,35.0,30.21,SE,135,1.0,3.0,44,0.00,,,0.00,,2013-05-27 09:11:00,
2013-05-27 05:21:00,57.0,35.0,30.21,SE,135,1.0,3.0,44,0.00,,,0.00,,2013-05-27 09:21:00,
2013-05-27 05:33:00,57.0,36.0,30.22,ESE,112,0.0,0.0,46,0.00,,,0.00,,2013-05-27 09:33:00,
2013-05-27 05:42:00,57.0,36.0,30.22,ESE,112,0.0,0.0,46,0.00,,,0.00,,2013-05-27 09:42:00,
2013-05-27 05:53:00,56.0,41.0,30.22,South,180,1.0,5.0,57,0.00,,,0.00,,2013-05-27 09:53:00,
2013-05-27 06:02:00,53.0,43.0,30.24,East,90,0.0,0.0,70,0.00,,,0.00,,2013-05-27 10:02:00,
2013-05-27 06:12:00,51.0,45.0,30.25,ESE,112,0.0,0.0,80,0.00,,,0.00,,2013-05-27 10:12:00,
2013-05-27 06:22:00,51.0,45.0,30.25,ESE,112,0.0,0.0,80,0.00,,,0.00,,2013-05-27 10:22:00,
2013-05-27 06:32:00,51.0,48.0,30.23,SW,225,1.0,7.0,89,0.00,,,0.01,,2013-05-27 10:32:00,
2013-05-27 06:42:00,51.0,48.0,30.23,SW,225,1.0,7.0,89,0.00,,,0.01,,2013-05-27 10:42:00,
2013-05-27 06:52:00,50.0,48.0,30.24,SSE,157,1.0,2.0,93,0.00,,,0.01,,2013-05-27 10:52:00,
2013-05-27 07:02:00,50.0,49.0,30.24,East,90,1.0,3.0,98,0.00,,,0.02,,2013-05-27 11:02:00,
2013-05-27 07:11:00,49.0,49.0,30.23,East,90,2.0,6.0,100,0.00,,,0.04,,2013-05-27 11:11:00,
2013-05-27 07:22:00,49.0,49.0,30.23,East,90,2.0,6.0,100,0.00,,,0.04,,2013-05-27 11:22:00,
2013-05-27 07:32:00,49.0,49.0,30.24,East,90,3.0,6.0,100,0.00,,,0.06,,2013-05-27 11:32:00,
2013-05-27 07:42:00,49.0,49.0,30.24,East,90,3.0,6.0,100,0.00,,,0.06,,2013-05-27 11:42:00,
2013-05-27 07:52:00,49.0,49.0,30.25,ENE,67,1.0,3.0,100,0.00,,,0.08,,2013-05-27 11:52:00,
2013-05-27 08:01:00,49.0,49.0,30.27,SE,135,0.0,0.0,100,0.00,,,0.10,,2013-05-27 12:01:00,
2013-05-27 08:11:00,49.0,49.0,30.27,SE,135,0.0,0.0,100,0.00,,,0.10,,2013-05-27 12:11:00,
2013-05-27 08:22:00,49.0,49.0,30.25,WNW,292,1.0,0.0,100,0.00,,,0.11,,2013-05-27 12:22:00,
2013-05-27 08:32:00,49.0,49.0,30.25,ENE,67,1.0,5.0,100,0.00,,,0.13,,2013-05-27 12:32:00,
2013-05-27 08:42:00,49.0,49.0,30.25,ENE,67,1.0,5.0,100,0.00,,,0.13,,2013-05-27 12:42:00,
2013-05-27 08:52:00,49.0,49.0,30.23,East,90,1.0,7.0,100,0.00,,,0.14,,2013-05-27 12:52:00,
2013-05-27 09:01:00,49.0,49.0,30.24,East,90,2.0,2.0,100,0.00,,,0.15,,2013-05-27 13:01:00,
2013-05-27 09:11:00,49.0,49.0,30.24,East,90,2.0,2.0,100,0.00,,,0.15,,2013-05-27 13:11:00,
2013-05-27 09:22:00,50.0,50.0,30.23,South,180,2.0,11.0,100,0.00,,,0.16,,2013-05-27 13:22:00,
2013-05-27 09:32:00,50.0,50.0,30.22,East,90,1.0,5.0,100,0.00,,,0.17,,2013-05-27 13:32:00,
2013-05-27 09:42:00,50.0,50.0,30.22,East,90,1.0,5.0,100,0.00,,,0.17,,2013-05-27 13:42:00,
2013-05-27 09:53:00,50.0,50.0,30.23,ESE,112,5.0,9.0,100,0.00,,,0.18,,2013-05-27 13:53:00,
2013-05-27 10:02:00,50.0,50.0,30.24,East,90,3.0,8.0,100,0.00,,,0.20,,2013-05-27 14:02:00,
2013-05-27 10:11:00,50.0,50.0,30.24,East,90,3.0,8.0,100,0.00,,,0.20,,2013-05-27 14:11:00,
2013-05-27 10:22:00,50.0,50.0,30.22,ESE,112,5.0,10.0,100,0.00,,,0.22,,2013-05-27 14:22:00,
2013-05-27 10:32:00,50.0,50.0,30.21,East,90,4.0,9.0,100,0.00,,,0.24,,2013-05-27 14:32:00,
2013-05-27 10:42:00,50.0,50.0,30.20,ESE,112,3.0,11.0,100,0.00,,,0.24,,2013-05-27 14:42:00,
2013-05-27 10:52:00,50.0,50.0,30.20,ESE,112,3.0,11.0,100,0.00,,,0.24,,2013-05-27 14:52:00,
2013-05-27 11:01:00,50.0,50.0,30.19,ESE,112,4.0,6.0,100,0.00,,,0.24,,2013-05-27 15:01:00,
2013-05-27 11:11:00,51.0,51.0,30.19,ENE,67,5.0,11.0,100,0.00,,,0.24,,2013-05-27 15:11:00,
2013-05-27 11:21:00,51.0,51.0,30.19,ENE,67,5.0,11.0,100,0.00,,,0.24,,2013-05-27 15:21:00,
2013-05-27 11:33:00,51.0,51.0,30.16,East,90,5.0,12.0,100,0.00,,,0.24,,2013-05-27 15:33:00,
2013-05-27 11:43:00,52.0,52.0,30.16,East,90,3.0,13.0,100,0.00,,,0.24,,2013-05-27 15:43:00,
2013-05-27 11:53:00,52.0,52.0,30.16,East,90,3.0,13.0,100,0.00,,,0.24,,2013-05-27 15:53:00,
2013-05-27 12:03:00,52.0,52.0,30.16,ENE,67,6.0,10.0,100,0.00,,,0.24,,2013-05-27 16:03:00,
2013-05-27 12:12:00,52.0,52.0,30.16,ESE,112,4.0,12.0,100,0.00,,,0.24,,2013-05-27 16:12:00,
2013-05-27 12:23:00,52.0,52.0,30.16,ESE,112,4.0,12.0,100,0.00,,,0.24,,2013-05-27 16:23:00,
2013-05-27 12:33:00,53.0,53.0,30.16,East,90,4.0,13.0,100,0.00,,,0.24,,2013-05-27 16:33:00,
2013-05-27 12:42:00,53.0,53.0,30.16,East,90,4.0,13.0,100,0.00,,,0.24,,2013-05-27 16:42:00,
2013-05-27 12:53:00,53.0,53.0,30.14,ESE,112,4.0,8.0,100,0.00,,,0.24,,2013-05-27 16:53:00,
2013-05-27 13:02:00,53.0,53.0,30.14,East,90,4.0,6.0,100,0.00,,,0.24,,2013-05-27 17:02:00,
2013-05-27 13:11:00,53.0,53.0,30.14,East,90,6.0,10.0,100,0.00,,,0.24,,2013-05-27 17:11:00,
2013-05-27 13:22:00,53.0,53.0,30.14,East,90,6.0,10.0,100,0.00,,,0.24,,2013-05-27 17:22:00,
2013-05-27 13:32:00,53.0,53.0,30.16,SE,135,1.0,7.0,100,0.00,,,0.24,,2013-05-27 17:32:00,
2013-05-27 13:43:00,53.0,53.0,30.16,SE,135,1.0,7.0,100,0.00,,,0.24,,2013-05-27 17:43:00,
2013-05-27 13:52:00,53.0,53.0,30.15,ESE,112,4.0,10.0,100,0.00,,,0.26,,2013-05-27 17:52:00,
2013-05-27 14:02:00,53.0,53.0,30.13,East,90,4.0,9.0,100,0.00,,,0.28,,2013-05-27 18:02:00,
2013-05-27 14:11:00,53.0,53.0,30.13,East,90,6.0,10.0,100,0.00,,,0.28,,2013-05-27 18:11:00,
2013-05-27 14:22:00,53.0,53.0,30.13,East,90,6.0,10.0,100,0.00,,,0.28,,2013-05-27 18:22:00,
2013-05-27 14:32:00,53.0,53.0,30.12,ENE,67,5.0,7.0,100,0.00,,,0.29,,2013-05-27 18:32:00,
2013-05-27 14:42:00,53.0,53.0,30.12,ENE,67,5.0,7.0,100,0.00,,,0.29,,2013-05-27 18:42:00,
2013-05-27 14:52:00,53.0,53.0,30.11,ENE,67,6.0,10.0,100,0.00,,,0.30,,2013-05-27 18:52:00,
2013-05-27 15:01:00,53.0,53.0,30.10,ESE,112,5.0,11.0,100,0.00,,,0.33,,2013-05-27 19:01:00,
2013-05-27 15:11:00,53.0,53.0,30.10,ESE,112,5.0,11.0,100,0.00,,,0.33,,2013-05-27 19:11:00,
2013-05-27 15:22:00,53.0,53.0,30.10,SE,135,4.0,9.0,100,0.00,,,0.33,,2013-05-27 19:22:00,
2013-05-27 15:32:00,53.0,53.0,30.09,East,90,3.0,9.0,100,0.00,,,0.34,,2013-05-27 19:32:00,
2013-05-27 15:42:00,53.0,53.0,30.09,East,90,3.0,9.0,100,0.00,,,0.34,,2013-05-27 19:42:00,
2013-05-27 15:52:00,53.0,53.0,30.09,East,90,4.0,7.0,100,0.00,,,0.34,,2013-05-27 19:52:00,
2013-05-27 16:01:00,54.0,54.0,30.10,East,90,5.0,9.0,100,0.00,,,0.34,,2013-05-27 20:01:00,
2013-05-27 16:11:00,54.0,54.0,30.10,East,90,5.0,9.0,100,0.00,,,0.34,,2013-05-27 20:11:00,
2013-05-27 16:22:00,53.0,53.0,30.10,ESE,112,4.0,7.0,100,0.00,,,0.35,,2013-05-27 20:22:00,
2013-05-27 16:32:00,54.0,54.0,30.09,ENE,67,4.0,5.0,100,0.00,,,0.35,,2013-05-27 20:32:00,
2013-05-27 16:42:00,54.0,54.0,30.09,SE,135,6.0,16.0,100,0.00,,,0.35,,2013-05-27 20:42:00,
2013-05-27 16:52:00,54.0,54.0,30.09,SE,135,6.0,16.0,100,0.00,,,0.35,,2013-05-27 20:52:00,
2013-05-27 17:01:00,54.0,54.0,30.08,East,90,5.0,13.0,100,0.00,,,0.36,,2013-05-27 21:01:00,
2013-05-27 17:12:00,54.0,54.0,30.05,East,90,6.0,12.0,100,0.00,,,0.37,,2013-05-27 21:12:00,
2013-05-27 17:21:00,54.0,54.0,30.05,East,90,6.0,12.0,100,0.00,,,0.37,,2013-05-27 21:21:00,
2013-05-27 17:33:00,54.0,54.0,30.03,NE,45,4.0,10.0,100,0.00,,,0.37,,2013-05-27 21:33:00,
2013-05-27 17:43:00,54.0,54.0,30.03,ENE,67,8.0,14.0,100,0.00,,,0.37,,2013-05-27 21:43:00,
2013-05-27 17:53:00,54.0,54.0,30.03,ENE,67,8.0,14.0,100,0.00,,,0.37,,2013-05-27 21:53:00,
2013-05-27 18:02:00,54.0,54.0,30.02,East,90,5.0,8.0,100,0.00,,,0.37,,2013-05-27 22:02:00,
2013-05-27 18:12:00,54.0,54.0,30.02,ESE,112,6.0,15.0,100,0.00,,,0.37,,2013-05-27 22:12:00,
2013-05-27 18:22:00,54.0,54.0,30.02,ESE,112,6.0,15.0,100,0.00,,,0.37,,2013-05-27 22:22:00,
2013-05-27 18:33:00,53.0,53.0,30.03,East,90,6.0,9.0,100,0.00,,,0.37,,2013-05-27 22:33:00,
2013-05-27 18:42:00,53.0,53.0,30.01,ENE,67,4.0,11.0,100,0.00,,,0.37,,2013-05-27 22:42:00,
2013-05-27 18:53:00,53.0,53.0,30.01,ENE,67,4.0,11.0,100,0.00,,,0.37,,2013-05-27 22:53:00,
2013-05-27 19:02:00,54.0,54.0,30.01,East,90,5.0,7.0,100,0.00,,,0.37,,2013-05-27 23:02:00,
2013-05-27 19:12:00,54.0,54.0,30.00,NE,45,6.0,14.0,100,0.00,,,0.37,,2013-05-27 23:12:00,
2013-05-27 19:22:00,54.0,54.0,30.00,NE,45,6.0,14.0,100,0.00,,,0.37,,2013-05-27 23:22:00,
2013-05-27 19:32:00,54.0,54.0,30.01,NE,45,5.0,7.0,100,0.00,,,0.37,,2013-05-27 23:32:00,
2013-05-27 19:42:00,54.0,54.0,30.01,NE,45,5.0,7.0,100,0.00,,,0.37,,2013-05-27 23:42:00,
2013-05-27 19:52:00,54.0,54.0,30.01,ESE,112,6.0,8.0,100,0.00,,,0.37,,2013-05-27 23:52:00,
2013-05-27 20:01:00,54.0,54.0,30.00,NE,45,2.0,6.0,100,0.00,,,0.37,,2013-05-28 00:01:00,
2013-05-27 20:11:00,54.0,54.0,30.00,NE,45,2.0,6.0,100,0.00,,,0.37,,2013-05-28 00:11:00,
2013-05-27 20:21:00,54.0,54.0,29.98,NNE,22,3.0,9.0,100,0.00,,,0.37,,2013-05-28 00:21:00,
2013-05-27 20:32:00,54.0,54.0,29.98,ENE,67,5.0,10.0,100,0.00,,,0.37,,2013-05-28 00:32:00,
2013-05-27 20:42:00,54.0,54.0,29.98,East,90,2.0,8.0,100,0.00,,,0.37,,2013-05-28 00:42:00,
2013-05-27 20:52:00,54.0,54.0,29.98,East,90,2.0,8.0,100,0.00,,,0.37,,2013-05-28 00:52:00,
2013-05-27 21:01:00,54.0,54.0,29.98,NE,45,4.0,12.0,100,0.00,,,0.37,,2013-05-28 01:01:00,
2013-05-27 21:11:00,54.0,54.0,29.98,NE,45,4.0,12.0,100,0.00,,,0.37,,2013-05-28 01:11:00,
2013-05-27 21:22:00,54.0,54.0,29.98,East,90,2.0,7.0,100,0.00,,,0.37,,2013-05-28 01:22:00,
2013-05-27 21:32:00,54.0,54.0,30.00,East,90,4.0,8.0,100,0.00,,,0.37,,2013-05-28 01:32:00,
2013-05-27 21:41:00,54.0,54.0,30.00,East,90,4.0,8.0,100,0.00,,,0.37,,2013-05-28 01:41:00,
2013-05-27 21:52:00,54.0,54.0,30.00,ENE,67,2.0,6.0,100,0.00,,,0.37,,2013-05-28 01:52:00,
2013-05-27 22:02:00,54.0,54.0,30.00,ENE,67,3.0,6.0,100,0.00,,,0.38,,2013-05-28 02:02:00,
2013-05-27 22:11:00,54.0,54.0,30.00,ENE,67,3.0,6.0,100,0.00,,,0.38,,2013-05-28 02:11:00,
2013-05-27 22:22:00,54.0,54.0,29.98,ENE,67,2.0,5.0,100,0.00,,,0.41,,2013-05-28 02:22:00,
2013-05-27 22:32:00,54.0,54.0,29.98,East,90,4.0,8.0,100,0.00,,,0.47,,2013-05-28 02:32:00,
2013-05-27 22:42:00,54.0,54.0,29.98,East,90,4.0,8.0,100,0.00,,,0.47,,2013-05-28 02:42:00,
2013-05-27 22:52:00,54.0,54.0,29.98,ENE,67,4.0,8.0,100,0.00,,,0.47,,2013-05-28 02:52:00,
2013-05-27 23:01:00,54.0,54.0,29.97,ESE,112,3.0,8.0,100,0.00,,,0.47,,2013-05-28 03:01:00,
2013-05-27 23:11:00,54.0,54.0,29.97,ESE,112,3.0,8.0,100,0.00,,,0.47,,2013-05-28 03:11:00,
2013-05-27 23:21:00,54.0,54.0,29.97,ENE,67,3.0,5.0,100,0.00,,,0.48,,2013-05-28 03:21:00,
2013-05-27 23:33:00,54.0,54.0,29.97,ENE,67,3.0,4.0,100,0.00,,,0.49,,2013-05-28 03:33:00,
2013-05-27 23:43:00,54.0,54.0,29.97,ENE,67,3.0,4.0,100,0.00,,,0.49,,2013-05-28 03:43:00,
2013-05-27 23:53:00,54.0,54.0,29.98,East,90,2.0,6.0,100,0.00,,,0.49,,2013-05-28 03:53:00,